Details From RJOO - Osaka Intl
To ROAH - Naha
Flight Number -
Tags Generated
Created
Modified
Stats Distance 654 nm / 1,211 km
Max Altitude 0 ft / 0 m
Waypoints 5
Social Downloads 5
Likes 0
Share VATSIM

Download

Looking for another format? Having issues loading an existing format? Contact us
Advertisement - Login to hide

Notes

Generated

Route

RJOO TENSO AME30 KAD ROAH

ID Type Via Altitude Latitude Longitude Leg Dist Tot Dist Heading (true) Name
O RJOO APT - 0 ft / 0 m 34.79527˚ 135.42869˚ - 0 nm - -
TENSO FIX - 0 ft / 0 m 32.29847˚ 132.80532˚ 199 nm 199 nm 222° / 220° -
AME30 FIX - 0 ft / 0 m 28.88144˚ 129.97015˚ 252 nm 451 nm 216° / 215° -
KAD VOR - 0 ft / 0 m 26.35680˚ 127.76832˚ 191 nm 643 nm 218° / 217° KADENA VORTAC
O ROAH APT - 0 ft / 0 m 26.20934˚ 127.64523˚ 11 nm 654 nm 217° / 217° -

Altitude Profile

Advertisement - Login to hide

Weather


0- 5 10 15 20 25 30 35+ Temperature / ° C

Clouds and Precipitation
Forecast for 2017-12-17 00:00 UTC. Updated 2 hours ago

Ground ~20,000 ft ~40,000 ft Winds

RJOO

Details ICAO RJOO (ITM)
Name OSAKA INTL
Region Japan
Timezone Asia/Tokyo (UTC+9.0)
Stats Elevation 50 ft / 15 m (AMSL)
Location 34.785603° 135.438019°
Runways 2
Magnetic Variation 7.678° W

METAR

RJOO 162300Z 29007KT 220V330 9999 FEW025 02/M09 Q1021

Decode

TAF

TAF RJOO 161707Z 1618/1800 29008KT 9999 FEW025

Decode

Departure Runways

ID Width Length Bearing (true) Bearing (mag) Surface Threshold Offset Overrun Length
14L 150 ft / 46 m 5,999 ft / 1,829 m 135.13° 142.81° Asphalt 0 ft / 0 m 678 ft / 207 m
14R 200 ft / 61 m 9,846 ft / 3,001 m 135.13° 142.81° Concrete 0 ft / 0 m 240 ft / 73 m
32L 200 ft / 61 m 9,846 ft / 3,001 m 315.15° 322.83° Concrete 0 ft / 0 m 249 ft / 76 m
32R 150 ft / 46 m 5,999 ft / 1,829 m 315.14° 322.82° Asphalt 0 ft / 0 m 571 ft / 174 m

ROAH

Details ICAO ROAH (OKA)
Name NAHA
Region Japan
Timezone Asia/Tokyo (UTC+9.0)
Stats Elevation 12 ft / 4 m (AMSL)
Location 26.195815° 127.645868°
Runways 1
Magnetic Variation 5.230° W

METAR

ROAH 162300Z 01022KT 9999 BKN035 16/08 Q1024

Decode

TAF

TAF ROAH 161707Z 1618/1800 01024KT 9999 FEW025 BKN045 TEMPO 1618/1621 01026G36KT BECMG 1709/1712 04011KT

Decode

Destination Runways

ID Width Length Bearing (true) Bearing (mag) Surface Threshold Offset Overrun Length
18 150 ft / 46 m 9,881 ft / 3,012 m 177.59° 182.82° Asphalt 138 ft / 42 m 640 ft / 195 m
36 150 ft / 46 m 9,881 ft / 3,012 m 357.59° 2.82° Asphalt 0 ft / 0 m 509 ft / 155 m

Approach Navaids

Runway Type Ident Frequency Range Bearing (true) Bearing (mag) Slope Elevation
36 Localiser IOK 110.30 MHz 18 nm / 33 km 356.78° 2.01° - 52 ft / 16 m (AMSL)
36 Glidescope IOK 110.30 MHz 10 nm / 19 km 357.59° 2.82° 2.75° 52 ft / 16 m (AMSL)
36 DME IOK 110.30 MHz 18 nm / 33 km - - - 31 ft / 9 m (AMSL)

Popular Alternatives